Time;durP1;ratioP1;P1;durP2;ratioP2;P2;SDS_P1;SDS_P2;PMS_P1;PMS_P2;Temp;Humidity;BMP_temperature;BMP_pressure;BME280_temperature;BME280_humidity;BME280_pressure;Samples;Min_cycle;Max_cycle;Signal;HPM_P1;HPM_P2
2022/03/31 00:00:38;;;;;;;7.30;1.85;;;2.90;99.90;;;;;;5052872;28;20037;-68
2022/03/31 00:03:10;;;;;;;8.20;1.75;;;2.90;99.90;;;;;;5053089;28;20025;-68
2022/03/31 00:05:36;;;;;;;7.35;1.70;;;3.00;99.90;;;;;;5055980;28;20382;-68
2022/03/31 00:08:22;;;;;;;5.82;1.80;;;3.00;99.90;;;;;;5057787;28;20675;-68
2022/03/31 00:10:53;;;;;;;10.05;1.75;;;3.00;99.90;;;;;;5050415;28;20032;-68
2022/03/31 00:13:22;;;;;;;7.50;1.63;;;3.00;99.90;;;;;;5051526;28;20094;-68
2022/03/31 00:15:48;;;;;;;5.95;1.63;;;3.00;99.90;;;;;;5057653;28;20381;-68
2022/03/31 00:18:16;;;;;;;8.73;1.90;;;3.00;99.90;;;;;;5054966;28;20025;-68
2022/03/31 00:20:41;;;;;;;7.00;2.05;;;3.00;99.90;;;;;;5089887;28;20049;-68
2022/03/31 00:23:07;;;;;;;9.15;2.03;;;3.00;99.90;;;;;;5051221;28;20040;-68
2022/03/31 00:25:34;;;;;;;7.20;1.80;;;3.10;99.90;;;;;;5056185;28;20072;-68
2022/03/31 00:28:03;;;;;;;5.82;1.80;;;3.10;99.90;;;;;;5051908;28;20040;-68
2022/03/31 00:30:29;;;;;;;8.32;1.80;;;3.10;99.90;;;;;;5053785;28;20767;-68
2022/03/31 00:32:54;;;;;;;8.88;1.73;;;3.10;99.90;;;;;;5052170;28;20124;-68
2022/03/31 00:35:20;;;;;;;5.97;1.90;;;3.10;99.90;;;;;;5056313;28;20543;-68
2022/03/31 00:37:47;;;;;;;7.78;1.60;;;3.00;99.90;;;;;;5053755;28;21386;-68
2022/03/31 00:40:18;;;;;;;8.10;2.10;;;3.10;99.90;;;;;;5055414;28;20029;-68
2022/03/31 00:42:51;;;;;;;6.30;1.70;;;3.10;99.90;;;;;;5052599;28;20067;-68
2022/03/31 00:45:29;;;;;;;6.10;1.70;;;3.00;99.90;;;;;;5047771;28;20092;-68
2022/03/31 00:47:56;;;;;;;5.75;1.67;;;3.10;99.90;;;;;;5051051;28;20053;-68
2022/03/31 00:50:22;;;;;;;7.50;2.10;;;3.10;99.90;;;;;;5052746;28;20091;-68
2022/03/31 00:52:48;;;;;;;7.90;1.70;;;3.00;99.90;;;;;;5049603;28;20591;-68
2022/03/31 00:55:15;;;;;;;6.80;1.90;;;3.00;99.90;;;;;;5049877;28;20041;-68
2022/03/31 00:57:43;;;;;;;6.97;1.73;;;3.00;99.90;;;;;;5059838;28;20041;-68
2022/03/31 01:00:10;;;;;;;7.85;2.00;;;3.00;99.90;;;;;;5052544;28;20036;-68
2022/03/31 01:02:38;;;;;;;6.78;1.67;;;3.00;99.90;;;;;;5048452;28;20037;-68
2022/03/31 01:05:05;;;;;;;6.30;1.65;;;3.00;99.90;;;;;;5054355;28;20117;-68
2022/03/31 01:07:34;;;;;;;7.63;1.50;;;3.00;99.90;;;;;;5052126;28;20370;-68
2022/03/31 01:10:00;;;;;;;8.75;1.90;;;3.00;99.90;;;;;;5063271;28;20029;-68
2022/03/31 01:12:25;;;;;;;5.65;1.77;;;3.00;99.90;;;;;;5055952;28;20025;-68
2022/03/31 01:15:14;;;;;;;7.30;1.60;;;3.00;99.90;;;;;;5054317;28;20017;-68
2022/03/31 01:17:42;;;;;;;7.97;1.90;;;3.00;99.90;;;;;;5053546;28;20017;-68
2022/03/31 01:20:11;;;;;;;9.55;2.20;;;3.00;99.90;;;;;;5051073;28;20584;-68
2022/03/31 01:22:37;;;;;;;6.90;2.33;;;3.00;99.90;;;;;;5054781;28;20496;-68
2022/03/31 01:25:05;;;;;;;5.28;1.88;;;3.00;99.90;;;;;;5053205;28;20028;-68
2022/03/31 01:27:35;;;;;;;6.07;1.67;;;3.00;99.90;;;;;;5052910;28;20315;-68
2022/03/31 01:30:01;;;;;;;6.95;1.85;;;3.00;99.90;;;;;;5049108;28;20025;-68
2022/03/31 01:32:27;;;;;;;6.30;1.58;;;3.00;99.90;;;;;;5052329;28;20021;-68
2022/03/31 01:34:54;;;;;;;7.07;1.90;;;3.00;99.90;;;;;;5058769;28;20370;-68
2022/03/31 01:37:20;;;;;;;6.32;1.63;;;3.00;99.90;;;;;;5048350;28;20033;-68
2022/03/31 01:39:45;;;;;;;5.15;1.67;;;3.00;99.90;;;;;;5049212;28;20149;-68
2022/03/31 01:42:12;;;;;;;6.70;2.00;;;3.10;99.90;;;;;;5051821;28;20063;-69
2022/03/31 01:44:38;;;;;;;8.35;2.05;;;3.00;99.90;;;;;;5052351;28;20096;-68
2022/03/31 01:47:04;;;;;;;7.85;1.70;;;3.00;99.90;;;;;;5046760;28;20099;-68
2022/03/31 01:49:30;;;;;;;6.82;1.67;;;3.00;99.90;;;;;;5054126;28;20142;-68
2022/03/31 01:51:55;;;;;;;7.10;2.40;;;3.00;99.90;;;;;;5051706;28;20077;-68
2022/03/31 01:54:21;;;;;;;6.82;1.60;;;3.10;99.90;;;;;;5052218;28;20072;-68
2022/03/31 01:56:48;;;;;;;8.73;2.20;;;3.10;99.90;;;;;;5047740;28;20128;-68
2022/03/31 01:59:14;;;;;;;7.00;1.80;;;3.00;99.90;;;;;;5051684;28;20036;-68
2022/03/31 02:01:39;;;;;;;8.00;2.10;;;3.00;99.90;;;;;;5050528;28;20075;-68
2022/03/31 02:04:05;;;;;;;9.60;2.03;;;3.10;99.90;;;;;;5054287;28;20025;-68
2022/03/31 02:06:31;;;;;;;6.20;2.20;;;3.00;99.90;;;;;;5059913;28;20067;-68
2022/03/31 02:08:57;;;;;;;6.03;1.75;;;3.00;99.90;;;;;;5056079;28;20067;-68
2022/03/31 02:11:23;;;;;;;9.68;1.90;;;2.90;99.90;;;;;;5055787;28;20471;-68
2022/03/31 02:13:48;;;;;;;7.18;2.30;;;3.00;99.90;;;;;;5051322;28;20041;-68
2022/03/31 02:16:14;;;;;;;6.50;2.00;;;2.90;99.90;;;;;;5052881;28;20044;-68
2022/03/31 02:18:40;;;;;;;7.55;2.22;;;2.90;99.90;;;;;;5053581;28;20029;-68
2022/03/31 02:21:06;;;;;;;10.32;2.20;;;2.90;99.90;;;;;;5059633;28;20051;-68
2022/03/31 02:23:32;;;;;;;10.73;2.30;;;2.90;99.90;;;;;;5054024;28;20017;-68
2022/03/31 02:25:58;;;;;;;8.88;1.77;;;2.90;99.90;;;;;;5051828;28;20893;-68
2022/03/31 02:28:23;;;;;;;6.05;1.85;;;2.80;99.90;;;;;;5088780;28;20033;-68
2022/03/31 02:30:49;;;;;;;8.10;2.17;;;2.80;99.90;;;;;;5059396;28;20017;-68
2022/03/31 02:33:15;;;;;;;5.45;2.03;;;2.80;99.90;;;;;;5058401;28;20021;-68
2022/03/31 02:35:40;;;;;;;7.05;2.30;;;2.80;99.90;;;;;;5055990;28;20052;-68
2022/03/31 02:38:06;;;;;;;9.73;2.67;;;2.90;99.90;;;;;;5059446;28;20017;-68
2022/03/31 02:40:32;;;;;;;9.57;2.92;;;2.90;99.90;;;;;;5036773;28;20031;-68
2022/03/31 02:42:58;;;;;;;8.38;2.10;;;2.80;99.90;;;;;;5059179;28;20037;-68
2022/03/31 02:45:23;;;;;;;6.80;2.40;;;2.90;99.90;;;;;;5054545;28;20053;-68
2022/03/31 02:47:49;;;;;;;8.32;2.58;;;2.90;99.90;;;;;;5055828;28;20025;-68
2022/03/31 02:50:17;;;;;;;8.77;2.40;;;2.80;99.90;;;;;;5050063;28;20036;-68
2022/03/31 02:55:42;;;;;;;10.95;2.80;;;2.80;99.90;;;;;;5033838;28;20053;-67
2022/03/31 02:58:08;;;;;;;8.10;2.53;;;2.80;99.90;;;;;;5058579;28;20035;-68
2022/03/31 03:00:37;;;;;;;7.88;2.80;;;2.80;99.90;;;;;;5054528;28;20021;-68
2022/03/31 03:03:04;;;;;;;8.88;3.25;;;2.80;99.90;;;;;;5056153;28;20092;-68
2022/03/31 03:05:31;;;;;;;8.68;3.20;;;2.90;99.90;;;;;;5057401;28;20025;-68
2022/03/31 03:07:57;;;;;;;7.65;3.30;;;2.80;99.90;;;;;;5061590;28;20047;-68
2022/03/31 03:10:23;;;;;;;9.57;3.33;;;2.80;99.90;;;;;;5062579;28;20080;-68
2022/03/31 03:12:51;;;;;;;8.75;3.45;;;2.80;99.90;;;;;;5056992;28;20405;-68
2022/03/31 03:15:18;;;;;;;9.35;3.53;;;2.80;99.90;;;;;;5050735;28;20063;-68
2022/03/31 03:17:49;;;;;;;10.70;4.00;;;2.80;99.90;;;;;;5057154;28;20053;-68
2022/03/31 03:20:16;;;;;;;9.80;3.85;;;2.80;99.90;;;;;;5053690;28;20021;-68
2022/03/31 03:22:49;;;;;;;11.45;4.40;;;2.80;99.90;;;;;;5058719;28;20028;-68
2022/03/31 03:25:17;;;;;;;10.30;4.28;;;2.80;99.90;;;;;;5057018;28;20044;-68
2022/03/31 03:27:43;;;;;;;11.50;4.93;;;2.80;99.90;;;;;;5049511;28;20096;-68
2022/03/31 03:30:10;;;;;;;10.88;5.03;;;2.80;99.90;;;;;;5055134;28;20036;-68
2022/03/31 03:32:36;;;;;;;11.23;5.25;;;2.90;99.90;;;;;;5052992;28;20104;-68
2022/03/31 03:35:04;;;;;;;13.25;6.32;;;2.80;99.90;;;;;;5052641;28;20037;-68
2022/03/31 03:37:30;;;;;;;12.32;5.93;;;2.80;99.90;;;;;;5054862;28;20481;-68
2022/03/31 03:39:55;;;;;;;12.15;6.43;;;2.80;99.90;;;;;;5048474;28;20048;-68
2022/03/31 03:42:21;;;;;;;12.35;6.75;;;2.90;99.90;;;;;;5049880;28;20017;-68
2022/03/31 03:44:46;;;;;;;12.25;6.80;;;2.90;99.90;;;;;;5046951;28;20021;-68
2022/03/31 03:47:12;;;;;;;13.82;7.38;;;2.90;99.90;;;;;;5051865;28;20040;-68
2022/03/31 03:49:38;;;;;;;16.35;8.15;;;2.90;99.90;;;;;;5054056;28;20033;-68
2022/03/31 03:52:04;;;;;;;15.43;7.53;;;2.90;99.90;;;;;;5052040;28;20023;-68
2022/03/31 03:54:30;;;;;;;14.40;8.32;;;2.90;99.90;;;;;;5051576;28;20088;-68
2022/03/31 03:56:56;;;;;;;18.67;9.13;;;2.90;99.90;;;;;;5049940;28;20166;-68
2022/03/31 03:59:22;;;;;;;15.43;8.57;;;2.90;99.90;;;;;;5051292;28;20129;-68
2022/03/31 04:01:48;;;;;;;15.68;9.80;;;2.90;99.90;;;;;;5050514;28;20036;-68
2022/03/31 04:04:13;;;;;;;18.38;9.27;;;2.90;99.90;;;;;;5055971;28;20037;-68
2022/03/31 04:06:39;;;;;;;18.90;9.93;;;2.80;99.90;;;;;;5053350;28;20108;-68
2022/03/31 04:09:05;;;;;;;18.10;10.63;;;2.90;99.90;;;;;;5055332;28;20887;-68
2022/03/31 04:11:30;;;;;;;17.92;10.40;;;2.90;99.90;;;;;;5055363;28;20029;-68
2022/03/31 04:13:56;;;;;;;18.27;10.23;;;2.90;99.90;;;;;;5059702;28;20484;-68
2022/03/31 04:16:22;;;;;;;16.52;10.73;;;2.90;99.90;;;;;;5056480;28;20105;-68
2022/03/31 04:18:47;;;;;;;18.42;10.43;;;2.90;99.90;;;;;;5049059;28;20025;-68
2022/03/31 04:21:14;;;;;;;16.33;9.88;;;2.90;99.90;;;;;;5054128;28;20035;-68
2022/03/31 04:23:40;;;;;;;16.63;9.85;;;2.90;99.90;;;;;;5058196;28;20040;-68
2022/03/31 04:26:06;;;;;;;16.05;9.80;;;2.90;99.90;;;;;;5056722;28;20021;-68
2022/03/31 04:28:32;;;;;;;14.07;8.63;;;2.80;99.90;;;;;;5058381;28;20041;-68
2022/03/31 04:30:58;;;;;;;14.90;9.43;;;2.80;99.90;;;;;;5057525;28;20036;-68
2022/03/31 04:33:26;;;;;;;15.27;9.82;;;2.80;99.90;;;;;;5056383;28;20075;-68
2022/03/31 04:35:51;;;;;;;13.10;8.98;;;2.80;99.90;;;;;;5064813;28;20049;-68
2022/03/31 04:38:17;;;;;;;14.75;8.25;;;2.80;99.90;;;;;;5060552;28;20032;-68
2022/03/31 04:40:43;;;;;;;13.63;8.70;;;2.80;99.90;;;;;;5051224;28;20075;-68
2022/03/31 04:43:09;;;;;;;13.77;8.43;;;2.80;99.90;;;;;;5053979;28;20328;-68
2022/03/31 04:45:35;;;;;;;13.15;8.55;;;2.70;99.90;;;;;;5054156;28;20049;-68
2022/03/31 04:48:00;;;;;;;15.85;9.43;;;2.70;99.90;;;;;;5062337;28;20457;-68
2022/03/31 04:50:26;;;;;;;14.13;8.85;;;2.70;99.90;;;;;;5054006;28;20044;-68
2022/03/31 04:52:52;;;;;;;14.38;8.85;;;2.80;99.90;;;;;;5054601;28;20025;-69
2022/03/31 04:55:17;;;;;;;16.33;9.27;;;2.70;99.90;;;;;;5058527;28;20113;-68
2022/03/31 04:57:43;;;;;;;13.05;8.15;;;2.70;99.90;;;;;;5058215;28;20045;-68
2022/03/31 05:00:13;;;;;;;13.65;8.02;;;2.70;99.90;;;;;;5056221;28;20328;-68
2022/03/31 05:02:38;;;;;;;14.55;9.27;;;2.70;99.90;;;;;;5055554;28;20369;-68
2022/03/31 05:05:04;;;;;;;16.20;10.05;;;2.60;99.90;;;;;;5055367;28;20033;-68
2022/03/31 05:07:30;;;;;;;15.43;9.13;;;2.60;99.90;;;;;;5046528;28;20093;-68
2022/03/31 05:09:56;;;;;;;14.13;8.73;;;2.70;99.90;;;;;;5048058;28;20030;-68
2022/03/31 05:12:21;;;;;;;13.15;8.88;;;2.70;99.90;;;;;;5048635;28;20048;-68
2022/03/31 05:14:47;;;;;;;16.65;9.63;;;2.60;99.90;;;;;;5058095;28;20357;-68
2022/03/31 05:17:13;;;;;;;15.25;9.20;;;2.60;99.90;;;;;;5056602;28;20140;-68
2022/03/31 05:19:38;;;;;;;15.93;8.93;;;2.60;99.90;;;;;;5055644;28;20033;-68
2022/03/31 05:22:05;;;;;;;14.10;8.40;;;2.60;99.90;;;;;;5050604;28;20043;-68
2022/03/31 05:24:30;;;;;;;12.57;8.38;;;2.60;99.90;;;;;;5059695;28;20029;-68
2022/03/31 05:26:56;;;;;;;16.25;8.95;;;2.60;99.90;;;;;;5052642;28;20092;-68
2022/03/31 05:29:22;;;;;;;14.02;8.93;;;2.60;99.90;;;;;;5058952;28;20021;-68
2022/03/31 05:31:49;;;;;;;13.38;8.38;;;2.70;99.90;;;;;;5051876;28;20670;-68
2022/03/31 05:34:15;;;;;;;13.32;7.85;;;2.70;99.90;;;;;;5053760;28;20021;-68
2022/03/31 05:36:40;;;;;;;14.48;8.20;;;2.70;99.90;;;;;;5054150;28;20079;-68
2022/03/31 05:39:06;;;;;;;13.85;8.80;;;2.70;99.90;;;;;;5058866;28;20079;-68
2022/03/31 05:41:32;;;;;;;13.85;8.57;;;2.60;99.90;;;;;;5060790;28;20036;-68
2022/03/31 05:43:58;;;;;;;14.43;8.40;;;2.60;99.90;;;;;;5059456;28;20025;-68
2022/03/31 05:46:25;;;;;;;17.38;8.88;;;2.70;99.90;;;;;;5061481;28;20040;-68
2022/03/31 05:48:51;;;;;;;14.15;8.63;;;2.70;99.90;;;;;;5054336;28;20464;-69
2022/03/31 05:51:17;;;;;;;15.10;8.50;;;2.80;99.90;;;;;;5057039;28;20135;-69
2022/03/31 05:53:43;;;;;;;14.10;8.38;;;2.70;99.90;;;;;;5057216;28;20365;-68
2022/03/31 05:56:09;;;;;;;13.82;8.63;;;2.70;99.90;;;;;;5059225;28;20174;-68
2022/03/31 05:58:35;;;;;;;14.88;8.32;;;2.70;99.90;;;;;;5056741;28;20034;-68
2022/03/31 06:01:01;;;;;;;13.95;8.57;;;2.80;99.90;;;;;;5060765;28;20379;-68
2022/03/31 06:03:26;;;;;;;13.27;8.30;;;2.90;99.90;;;;;;5056082;28;20081;-68
2022/03/31 06:05:52;;;;;;;14.55;8.88;;;2.80;99.90;;;;;;5052767;28;20025;-68
2022/03/31 06:08:19;;;;;;;12.93;8.13;;;2.80;99.90;;;;;;5054083;28;20043;-68
2022/03/31 06:10:47;;;;;;;16.35;9.95;;;2.80;99.90;;;;;;5050089;28;21324;-68
2022/03/31 06:13:13;;;;;;;14.93;9.23;;;2.90;99.90;;;;;;5057850;28;20025;-68
2022/03/31 06:15:39;;;;;;;14.15;9.32;;;2.90;99.90;;;;;;5051586;28;20063;-68
2022/03/31 06:18:07;;;;;;;13.45;8.73;;;3.00;99.90;;;;;;5054981;28;20036;-69
2022/03/31 06:20:34;;;;;;;14.80;9.70;;;2.90;99.90;;;;;;5057040;28;20021;-68
2022/03/31 06:23:00;;;;;;;14.60;9.40;;;3.00;99.90;;;;;;5056797;28;20108;-69
2022/03/31 06:25:26;;;;;;;13.70;9.07;;;3.00;99.90;;;;;;5059543;28;20074;-68
2022/03/31 06:27:52;;;;;;;15.10;10.18;;;3.00;99.90;;;;;;5070597;28;20029;-68
2022/03/31 06:30:18;;;;;;;15.25;10.25;;;3.00;99.90;;;;;;5057353;28;20033;-68
2022/03/31 06:32:44;;;;;;;15.52;10.45;;;3.00;99.90;;;;;;5086490;28;20021;-69
2022/03/31 06:35:14;;;;;;;16.50;10.63;;;3.00;99.90;;;;;;5053797;28;20345;-68
2022/03/31 06:37:47;;;;;;;16.25;10.48;;;3.20;99.90;;;;;;5083952;28;20025;-68
2022/03/31 06:40:14;;;;;;;14.75;10.13;;;3.10;99.90;;;;;;5054741;28;20029;-68
2022/03/31 06:42:42;;;;;;;15.75;9.98;;;3.20;99.90;;;;;;5055061;28;20051;-69
2022/03/31 06:45:12;;;;;;;17.25;11.27;;;3.20;99.90;;;;;;5055407;28;20029;-68
2022/03/31 06:47:39;;;;;;;16.20;10.65;;;3.30;99.90;;;;;;5060736;28;20044;-69
2022/03/31 06:50:06;;;;;;;13.93;9.82;;;3.30;99.90;;;;;;5055931;28;20088;-70
2022/03/31 06:52:31;;;;;;;14.45;9.50;;;3.30;99.90;;;;;;5059531;28;20039;-68
2022/03/31 06:54:57;;;;;;;14.00;9.55;;;3.30;99.90;;;;;;5063178;28;20096;-69
2022/03/31 06:57:23;;;;;;;13.90;9.00;;;3.40;99.90;;;;;;5060768;28;20080;-69
2022/03/31 06:59:49;;;;;;;12.63;8.50;;;3.40;99.90;;;;;;5053134;28;20064;-68
2022/03/31 07:02:15;;;;;;;13.43;8.40;;;3.50;99.90;;;;;;5053717;28;20033;-69
2022/03/31 07:04:41;;;;;;;12.38;8.18;;;3.50;99.90;;;;;;5050905;28;20040;-68
2022/03/31 07:07:07;;;;;;;12.88;8.05;;;3.40;99.90;;;;;;5057399;28;20017;-68
2022/03/31 07:09:33;;;;;;;12.68;8.05;;;3.50;99.90;;;;;;5043782;28;20041;-69
2022/03/31 07:11:59;;;;;;;13.00;8.52;;;3.50;99.90;;;;;;5048556;28;20041;-69
2022/03/31 07:14:24;;;;;;;11.40;7.70;;;3.60;99.90;;;;;;5062163;28;20099;-69
2022/03/31 07:16:50;;;;;;;13.98;8.15;;;3.50;99.90;;;;;;5044328;28;20041;-69
2022/03/31 07:19:16;;;;;;;11.43;7.50;;;3.50;99.90;;;;;;5061097;28;20053;-69
2022/03/31 07:21:41;;;;;;;12.77;7.90;;;3.50;99.90;;;;;;5060720;28;20128;-68
2022/03/31 07:24:07;;;;;;;13.13;8.63;;;3.40;99.90;;;;;;5061035;28;20572;-68
2022/03/31 07:26:33;;;;;;;10.95;7.70;;;3.50;99.90;;;;;;5050638;28;20013;-68
2022/03/31 07:28:58;;;;;;;12.38;8.57;;;3.50;99.90;;;;;;5047059;28;20389;-69
2022/03/31 07:31:26;;;;;;;12.50;8.88;;;3.60;99.90;;;;;;5053739;28;20255;-68
2022/03/31 07:33:51;;;;;;;12.38;8.80;;;3.60;99.90;;;;;;5052829;28;20032;-68
2022/03/31 07:36:18;;;;;;;13.15;8.52;;;3.50;99.90;;;;;;5048141;28;20512;-68
2022/03/31 07:38:45;;;;;;;13.43;9.27;;;3.50;99.90;;;;;;5058993;28;20040;-69
2022/03/31 07:41:12;;;;;;;13.88;8.90;;;3.50;99.90;;;;;;5053828;28;20025;-69
2022/03/31 07:43:38;;;;;;;14.00;9.40;;;3.50;99.90;;;;;;5054025;28;20481;-69
2022/03/31 07:46:05;;;;;;;14.55;9.70;;;3.60;99.90;;;;;;5054287;28;20078;-69
2022/03/31 07:48:31;;;;;;;15.18;10.32;;;3.60;99.90;;;;;;5059396;28;20591;-70
2022/03/31 07:50:58;;;;;;;13.75;9.93;;;3.70;99.90;;;;;;5054735;28;20072;-68
2022/03/31 07:53:27;;;;;;;15.35;10.70;;;3.70;99.90;;;;;;5053530;28;20261;-69
2022/03/31 07:55:54;;;;;;;14.77;9.95;;;3.80;99.90;;;;;;5053799;28;20069;-68
2022/03/31 07:58:23;;;;;;;15.82;10.48;;;3.80;99.90;;;;;;5051238;28;20024;-68
2022/03/31 08:00:50;;;;;;;14.70;10.52;;;3.70;99.90;;;;;;5049851;28;20074;-70
2022/03/31 08:03:18;;;;;;;14.40;9.90;;;3.70;99.90;;;;;;5049155;28;20028;-68
2022/03/31 08:05:44;;;;;;;14.38;10.18;;;3.60;99.90;;;;;;5051752;28;20032;-69
2022/03/31 08:08:10;;;;;;;14.18;9.60;;;3.60;99.90;;;;;;5050598;28;20025;-69
2022/03/31 08:10:35;;;;;;;15.48;10.15;;;3.60;99.90;;;;;;5051001;28;20112;-69
2022/03/31 08:13:01;;;;;;;14.88;10.48;;;3.50;99.90;;;;;;5049680;28;20083;-68
2022/03/31 08:15:27;;;;;;;15.55;10.45;;;3.60;99.90;;;;;;5051223;28;20048;-67
2022/03/31 08:17:53;;;;;;;15.77;9.85;;;3.60;99.90;;;;;;5052227;28;20021;-69
2022/03/31 08:20:19;;;;;;;16.35;10.25;;;3.60;99.90;;;;;;5047634;28;20033;-68
2022/03/31 08:22:46;;;;;;;15.43;10.05;;;3.50;99.90;;;;;;5051257;28;20029;-68
2022/03/31 08:25:13;;;;;;;16.33;10.35;;;3.50;99.90;;;;;;5056786;28;20044;-69
2022/03/31 08:27:40;;;;;;;16.23;10.40;;;3.60;99.90;;;;;;5050119;28;20040;-69
2022/03/31 08:30:11;;;;;;;13.85;9.25;;;3.50;99.90;;;;;;5054467;28;20108;-69
2022/03/31 08:32:39;;;;;;;16.10;10.23;;;3.50;99.90;;;;;;5053720;28;20036;-68
2022/03/31 08:35:07;;;;;;;13.77;10.10;;;3.50;99.90;;;;;;5058013;28;20044;-67
2022/03/31 08:37:33;;;;;;;14.70;9.63;;;3.60;99.90;;;;;;5052679;28;20449;-68
2022/03/31 08:39:59;;;;;;;12.82;9.32;;;3.50;99.90;;;;;;5049636;28;20032;-68
2022/03/31 08:42:24;;;;;;;14.43;9.60;;;3.60;99.90;;;;;;5053591;28;20043;-69
2022/03/31 08:44:52;;;;;;;13.35;9.02;;;3.50;99.90;;;;;;5049885;28;20022;-68
2022/03/31 08:47:20;;;;;;;13.80;9.10;;;3.50;99.90;;;;;;5050054;28;20025;-68
2022/03/31 08:49:46;;;;;;;13.32;9.10;;;3.50;99.90;;;;;;5046797;28;20029;-68
2022/03/31 08:52:13;;;;;;;13.30;9.15;;;3.50;99.90;;;;;;5048040;28;20084;-68
2022/03/31 08:54:40;;;;;;;13.05;8.48;;;3.50;99.90;;;;;;5044920;28;20037;-68
2022/03/31 08:57:06;;;;;;;13.15;8.90;;;3.50;99.90;;;;;;5042582;28;20140;-68
2022/03/31 08:59:32;;;;;;;15.75;8.38;;;3.50;99.90;;;;;;5049057;28;20029;-69
2022/03/31 09:01:58;;;;;;;11.30;8.10;;;3.50;99.90;;;;;;5044011;28;20021;-68
2022/03/31 09:04:25;;;;;;;12.88;8.55;;;3.50;99.90;;;;;;5044815;28;20035;-68
2022/03/31 09:07:06;;;;;;;12.20;8.05;;;3.50;99.90;;;;;;5044024;28;20048;-68
2022/03/31 09:09:43;;;;;;;12.55;7.85;;;3.50;99.90;;;;;;5045349;28;20033;-68
2022/03/31 09:12:08;;;;;;;11.95;8.20;;;3.50;99.90;;;;;;5053692;28;20055;-69
2022/03/31 09:14:34;;;;;;;11.80;7.90;;;3.50;99.90;;;;;;5055061;28;20037;-69
2022/03/31 09:17:14;;;;;;;11.82;7.38;;;3.40;99.90;;;;;;5047524;28;20060;-69
2022/03/31 09:19:39;;;;;;;10.60;7.03;;;3.50;99.90;;;;;;5059184;28;20037;-68
2022/03/31 09:22:06;;;;;;;12.25;7.28;;;3.40;99.90;;;;;;5055314;28;20024;-68
2022/03/31 09:24:32;;;;;;;10.27;6.82;;;3.40;99.90;;;;;;5060959;28;20440;-68
2022/03/31 09:26:59;;;;;;;10.48;6.43;;;3.40;99.90;;;;;;5048014;28;20048;-68
2022/03/31 09:29:27;;;;;;;12.93;7.03;;;3.30;99.90;;;;;;5054158;28;20028;-66
2022/03/31 09:32:05;;;;;;;9.60;5.72;;;3.30;99.90;;;;;;5052767;28;20492;-69
2022/03/31 09:34:45;;;;;;;9.60;5.80;;;3.30;99.90;;;;;;5050792;28;20024;-68
2022/03/31 09:37:12;;;;;;;7.43;4.38;;;3.30;99.90;;;;;;5055805;28;20037;-68
2022/03/31 09:39:39;;;;;;;8.75;5.05;;;3.20;99.90;;;;;;5058114;28;20033;-68
2022/03/31 09:42:17;;;;;;;7.70;4.35;;;3.10;99.90;;;;;;5049501;28;20363;-69
2022/03/31 09:44:42;;;;;;;7.45;4.20;;;3.00;99.90;;;;;;5043899;28;20079;-68
2022/03/31 09:47:10;;;;;;;8.82;4.80;;;3.10;99.90;;;;;;5064169;28;20036;-68
2022/03/31 09:49:37;;;;;;;8.90;4.85;;;3.10;99.90;;;;;;5063509;28;20484;-68
2022/03/31 09:52:07;;;;;;;7.97;4.50;;;3.10;99.90;;;;;;5046919;28;20376;-68
2022/03/31 09:54:34;;;;;;;8.93;4.93;;;3.00;99.90;;;;;;5063832;28;20029;-68
2022/03/31 09:57:03;;;;;;;8.95;4.88;;;3.00;99.90;;;;;;5063801;28;20057;-68
2022/03/31 09:59:34;;;;;;;8.43;4.70;;;3.00;99.90;;;;;;5064046;28;20060;-69
2022/03/31 10:02:01;;;;;;;7.90;4.35;;;3.00;99.90;;;;;;5062390;28;20029;-68
2022/03/31 10:04:27;;;;;;;8.05;4.60;;;2.80;99.90;;;;;;5062675;28;20029;-68
2022/03/31 10:06:53;;;;;;;8.63;5.10;;;2.90;99.90;;;;;;5063687;28;20017;-68
2022/03/31 10:09:19;;;;;;;9.60;5.15;;;2.90;99.90;;;;;;5057971;28;20060;-68
2022/03/31 10:11:49;;;;;;;10.27;4.70;;;2.90;99.90;;;;;;5063899;28;20016;-69
2022/03/31 10:14:43;;;;;;;8.52;4.03;;;3.00;99.90;;;;;;5063138;28;20177;-69
2022/03/31 10:17:10;;;;;;;7.90;4.45;;;2.90;99.90;;;;;;5064057;28;20064;-68
2022/03/31 10:19:40;;;;;;;8.13;4.90;;;2.90;99.90;;;;;;5062272;28;20024;-68
2022/03/31 10:24:41;;;;;;;8.32;4.50;;;3.00;99.90;;;;;;5064276;28;20021;-68
2022/03/31 10:25:03;;;;;;;8.38;5.15;;;3.00;99.90;;;;;;5062909;28;20062;-68
2022/03/31 10:27:32;;;;;;;9.32;4.80;;;3.00;99.90;;;;;;5059265;28;20029;-69
2022/03/31 10:30:19;;;;;;;8.88;4.65;;;3.20;99.90;;;;;;5062213;28;20048;-68
2022/03/31 10:32:56;;;;;;;9.65;4.85;;;3.40;99.90;;;;;;5063308;28;20071;-68
2022/03/31 10:35:28;;;;;;;8.20;4.30;;;3.40;99.90;;;;;;5063369;28;20067;-69
2022/03/31 10:37:54;;;;;;;8.45;4.93;;;3.40;99.90;;;;;;5062850;28;20096;-68
2022/03/31 10:40:29;;;;;;;7.53;4.28;;;3.30;99.90;;;;;;5062536;28;20039;-68
2022/03/31 10:42:55;;;;;;;9.18;4.95;;;3.30;99.90;;;;;;5052775;28;20063;-68
2022/03/31 10:45:32;;;;;;;9.57;5.35;;;3.40;99.90;;;;;;5042728;28;20077;-69
2022/03/31 10:47:58;;;;;;;9.02;5.07;;;3.50;99.90;;;;;;5048968;28;20025;-69
2022/03/31 10:50:25;;;;;;;9.98;5.07;;;3.40;99.90;;;;;;5062637;28;20108;-69
2022/03/31 10:53:03;;;;;;;8.70;4.88;;;3.30;99.90;;;;;;5061424;28;20048;-69
2022/03/31 10:55:40;;;;;;;8.30;4.53;;;3.30;99.90;;;;;;5063297;28;20033;-68
2022/03/31 10:58:18;;;;;;;8.95;4.95;;;3.20;99.90;;;;;;5061724;28;20044;-69
2022/03/31 11:00:43;;;;;;;8.88;5.13;;;3.10;99.90;;;;;;5058962;28;20032;-68
2022/03/31 11:03:10;;;;;;;8.35;4.82;;;3.10;99.90;;;;;;5062066;28;20112;-69
2022/03/31 11:05:38;;;;;;;9.02;4.78;;;3.10;99.90;;;;;;5062717;28;20388;-69
2022/03/31 11:08:05;;;;;;;8.02;4.13;;;3.10;99.90;;;;;;5062968;28;20021;-69
2022/03/31 11:10:41;;;;;;;7.97;4.35;;;2.90;99.90;;;;;;5059096;28;20454;-69
2022/03/31 11:13:07;;;;;;;7.50;4.25;;;3.00;99.90;;;;;;5057280;28;20017;-68
2022/03/31 11:15:34;;;;;;;7.57;4.15;;;2.90;99.90;;;;;;5061698;28;20056;-68
2022/03/31 11:18:00;;;;;;;8.13;4.53;;;2.80;99.90;;;;;;5062339;28;20025;-69
2022/03/31 11:20:27;;;;;;;8.40;4.35;;;2.70;99.90;;;;;;5062176;28;20025;-68
2022/03/31 11:23:03;;;;;;;8.20;4.93;;;2.60;99.90;;;;;;5060625;28;20040;-68
2022/03/31 11:25:30;;;;;;;10.05;4.38;;;2.50;99.90;;;;;;5060953;28;20389;-68
2022/03/31 11:27:59;;;;;;;7.97;4.53;;;2.40;99.90;;;;;;5057113;28;20037;-68
2022/03/31 11:30:30;;;;;;;7.55;3.85;;;2.40;99.90;;;;;;5054802;28;20021;-68
2022/03/31 11:32:56;;;;;;;8.50;4.38;;;2.30;99.90;;;;;;5049477;28;20017;-68
2022/03/31 11:35:26;;;;;;;7.75;4.00;;;2.20;99.90;;;;;;5041010;28;20101;-68
2022/03/31 11:37:57;;;;;;;9.38;4.10;;;2.20;99.90;;;;;;5042511;28;20109;-68
2022/03/31 11:40:31;;;;;;;8.45;4.35;;;2.10;99.90;;;;;;5054781;28;20111;-68
2022/03/31 11:42:59;;;;;;;9.27;4.70;;;2.10;99.90;;;;;;5045695;28;20036;-68
2022/03/31 11:45:31;;;;;;;8.52;4.80;;;2.10;99.90;;;;;;5049278;28;20025;-68
2022/03/31 11:47:57;;;;;;;8.85;4.95;;;2.20;99.90;;;;;;5059464;28;20024;-69
2022/03/31 11:50:24;;;;;;;9.18;4.88;;;2.20;99.90;;;;;;5050358;28;20026;-68
2022/03/31 11:52:50;;;;;;;10.18;5.68;;;2.20;99.90;;;;;;5057751;28;20029;-68
2022/03/31 11:55:15;;;;;;;10.02;5.93;;;2.20;99.90;;;;;;5049102;28;20643;-68
2022/03/31 11:57:51;;;;;;;10.48;6.05;;;2.20;99.90;;;;;;5041287;28;20053;-68
2022/03/31 12:00:18;;;;;;;12.00;6.22;;;2.10;99.90;;;;;;5053243;28;20043;-68
2022/03/31 12:02:58;;;;;;;10.88;5.95;;;2.20;99.90;;;;;;5056043;28;20029;-68
2022/03/31 12:05:24;;;;;;;11.27;5.95;;;2.20;99.90;;;;;;5075830;28;20028;-68
2022/03/31 12:07:51;;;;;;;13.32;6.32;;;2.20;99.90;;;;;;5059327;28;20203;-68
2022/03/31 12:10:18;;;;;;;11.38;5.70;;;2.20;99.90;;;;;;5064995;28;20029;-68
2022/03/31 12:12:53;;;;;;;12.45;6.43;;;2.30;99.90;;;;;;5052066;28;20025;-68
2022/03/31 12:15:21;;;;;;;11.07;6.07;;;2.30;99.90;;;;;;5057100;28;20048;-68
2022/03/31 12:18:02;;;;;;;11.32;6.43;;;2.20;99.90;;;;;;5059984;28;20017;-68
2022/03/31 12:20:29;;;;;;;11.35;6.63;;;2.20;99.90;;;;;;5060951;28;20044;-69
2022/03/31 12:22:55;;;;;;;10.13;6.40;;;2.30;99.90;;;;;;5055032;28;20032;-68
2022/03/31 12:25:35;;;;;;;13.10;7.25;;;2.20;99.90;;;;;;5060260;28;20025;-68
2022/03/31 12:28:10;;;;;;;10.88;6.25;;;2.30;99.90;;;;;;5050760;28;20094;-68
2022/03/31 12:30:47;;;;;;;12.35;6.82;;;2.30;99.90;;;;;;5060249;28;20365;-68
2022/03/31 12:33:20;;;;;;;13.20;7.50;;;2.30;99.90;;;;;;5059516;28;20043;-68
2022/03/31 12:36:06;;;;;;;11.68;6.85;;;2.20;99.90;;;;;;5059165;28;20440;-68
2022/03/31 12:38:39;;;;;;;12.85;6.97;;;2.30;99.90;;;;;;5059768;28;20049;-68
2022/03/31 12:41:09;;;;;;;12.30;7.38;;;2.30;99.90;;;;;;5057827;28;20040;-68
2022/03/31 12:43:34;;;;;;;12.77;7.60;;;2.30;99.90;;;;;;5059437;28;20036;-68
2022/03/31 12:46:15;;;;;;;13.15;7.82;;;2.30;99.90;;;;;;5055867;28;20025;-68
2022/03/31 12:48:53;;;;;;;12.77;7.47;;;2.30;99.90;;;;;;5052908;28;20029;-68
2022/03/31 12:51:19;;;;;;;13.90;8.02;;;2.30;99.90;;;;;;5048340;28;20025;-68
2022/03/31 12:53:45;;;;;;;13.23;8.20;;;2.30;99.90;;;;;;5043740;28;20032;-68
2022/03/31 12:56:11;;;;;;;13.88;8.45;;;2.30;99.90;;;;;;5052559;28;20051;-68